sensor_id;sensor_type;location;lat;lon;timestamp;pressure;altitude;pressure_sealevel;temperature;humidity
76086;BME280;64791;0.000;0.000;2023-11-19T10:04:20;93929.88;;;7.70;57.42
76086;BME280;64791;0.000;0.000;2023-11-19T10:06:47;93930.81;;;7.85;57.60
76086;BME280;64791;0.000;0.000;2023-11-19T10:09:13;93926.88;;;7.94;56.94
76086;BME280;64791;0.000;0.000;2023-11-19T10:11:40;93919.41;;;7.94;56.84
76086;BME280;64791;0.000;0.000;2023-11-19T10:14:06;93921.59;;;7.96;56.66
76086;BME280;64791;0.000;0.000;2023-11-19T10:16:34;93913.69;;;7.92;57.07
76086;BME280;64791;0.000;0.000;2023-11-19T10:18:59;93919.53;;;7.89;56.87
76086;BME280;64791;0.000;0.000;2023-11-19T10:21:25;93927.09;;;7.83;56.38
76086;BME280;64791;0.000;0.000;2023-11-19T10:23:54;93930.94;;;7.80;56.78
76086;BME280;64791;0.000;0.000;2023-11-19T10:26:22;93938.75;;;7.76;56.90
76086;BME280;64791;0.000;0.000;2023-11-19T10:28:48;93933.75;;;7.74;56.39
76086;BME280;64791;0.000;0.000;2023-11-19T10:31:14;93937.25;;;7.62;56.33
76086;BME280;64791;0.000;0.000;2023-11-19T10:33:40;93930.59;;;7.57;55.39
76086;BME280;64791;0.000;0.000;2023-11-19T10:36:06;93929.97;;;7.51;56.03
76086;BME280;64791;0.000;0.000;2023-11-19T10:38:32;93922.31;;;8.22;55.61
76086;BME280;64791;0.000;0.000;2023-11-19T10:40:59;93911.38;;;9.18;53.30
76086;BME280;64791;0.000;0.000;2023-11-19T10:43:24;93893.91;;;9.36;51.64
76086;BME280;64791;0.000;0.000;2023-11-19T10:45:51;93902.81;;;9.50;51.61
76086;BME280;64791;0.000;0.000;2023-11-19T10:48:17;93889.56;;;9.48;47.42
76086;BME280;64791;0.000;0.000;2023-11-19T10:50:44;93896.19;;;9.45;47.32
76086;BME280;64791;0.000;0.000;2023-11-19T10:53:11;93903.44;;;9.35;47.74
76086;BME280;64791;0.000;0.000;2023-11-19T10:55:41;93894.53;;;9.22;48.37
76086;BME280;64791;0.000;0.000;2023-11-19T10:58:09;93892.94;;;9.26;47.23
76086;BME280;64791;0.000;0.000;2023-11-19T11:00:39;93890.38;;;9.28;47.21
76086;BME280;64791;0.000;0.000;2023-11-19T11:03:15;93898.72;;;9.15;47.56
76086;BME280;64791;0.000;0.000;2023-11-19T11:05:42;93891.97;;;9.24;47.17
76086;BME280;64791;0.000;0.000;2023-11-19T11:08:08;93893.41;;;9.17;47.50
76086;BME280;64791;0.000;0.000;2023-11-19T11:10:35;93898.16;;;9.17;47.19
76086;BME280;64791;0.000;0.000;2023-11-19T11:13:04;93891.63;;;9.27;46.95
76086;BME280;64791;0.000;0.000;2023-11-19T11:15:30;93885.66;;;9.36;47.07
76086;BME280;64791;0.000;0.000;2023-11-19T11:17:57;93877.41;;;9.36;46.38
76086;BME280;64791;0.000;0.000;2023-11-19T11:20:26;93880.88;;;9.37;47.46
76086;BME280;64791;0.000;0.000;2023-11-19T11:25:51;93865.78;;;9.94;46.70
76086;BME280;64791;0.000;0.000;2023-11-19T11:38:36;93874.88;;;11.59;44.13
76086;BME280;64791;0.000;0.000;2023-11-19T11:43:48;93876.91;;;11.73;43.50
76086;BME280;64791;0.000;0.000;2023-11-19T11:49:02;93865.69;;;11.56;43.22
76086;BME280;64791;0.000;0.000;2023-11-19T11:54:09;93855.97;;;10.95;43.43
76086;BME280;64791;0.000;0.000;2023-11-19T11:56:38;93862.78;;;11.09;43.63
76086;BME280;64791;0.000;0.000;2023-11-19T11:59:07;93857.06;;;11.14;44.52
76086;BME280;64791;0.000;0.000;2023-11-19T12:01:33;93863.69;;;11.19;44.04
76086;BME280;64791;0.000;0.000;2023-11-19T12:04:00;93875.66;;;11.06;44.30
76086;BME280;64791;0.000;0.000;2023-11-19T12:06:27;93871.06;;;11.01;44.10
76086;BME280;64791;0.000;0.000;2023-11-19T12:08:59;93874.16;;;10.90;44.56
76086;BME280;64791;0.000;0.000;2023-11-19T12:11:24;93876.41;;;10.92;44.66
76086;BME280;64791;0.000;0.000;2023-11-19T12:13:53;93873.25;;;10.80;45.42
76086;BME280;64791;0.000;0.000;2023-11-19T12:16:21;93884.78;;;10.64;45.49
76086;BME280;64791;0.000;0.000;2023-11-19T12:18:47;93874.44;;;10.49;45.82
76086;BME280;64791;0.000;0.000;2023-11-19T12:21:27;93861.00;;;10.38;46.72
76086;BME280;64791;0.000;0.000;2023-11-19T12:23:53;93859.97;;;10.13;47.43
76086;BME280;64791;0.000;0.000;2023-11-19T12:31:24;93840.94;;;9.79;48.75
76086;BME280;64791;0.000;0.000;2023-11-19T12:33:50;93842.59;;;9.82;48.72
76086;BME280;64791;0.000;0.000;2023-11-19T12:36:16;93832.91;;;9.96;48.93
76086;BME280;64791;0.000;0.000;2023-11-19T12:38:43;93842.50;;;10.10;48.76
76086;BME280;64791;0.000;0.000;2023-11-19T12:41:11;93836.50;;;10.19;48.51
76086;BME280;64791;0.000;0.000;2023-11-19T12:43:37;93836.16;;;10.30;48.32
76086;BME280;64791;0.000;0.000;2023-11-19T12:46:16;93823.31;;;10.40;46.92
76086;BME280;64791;0.000;0.000;2023-11-19T12:48:42;93817.06;;;10.40;42.43
76086;BME280;64791;0.000;0.000;2023-11-19T12:51:07;93814.50;;;10.49;42.07
76086;BME280;64791;0.000;0.000;2023-11-19T12:53:46;93811.19;;;10.36;43.61
76086;BME280;64791;0.000;0.000;2023-11-19T12:56:12;93816.72;;;10.43;45.26
76086;BME280;64791;0.000;0.000;2023-11-19T12:58:39;93811.03;;;10.56;45.79
76086;BME280;64791;0.000;0.000;2023-11-19T13:01:06;93820.44;;;10.69;46.45
76086;BME280;64791;0.000;0.000;2023-11-19T13:03:33;93833.31;;;10.81;46.59
76086;BME280;64791;0.000;0.000;2023-11-19T13:06:03;93826.16;;;10.93;47.17
76086;BME280;64791;0.000;0.000;2023-11-19T13:08:35;93823.03;;;11.04;47.25
76086;BME280;64791;0.000;0.000;2023-11-19T13:11:01;93821.00;;;11.12;47.48
76086;BME280;64791;0.000;0.000;2023-11-19T13:13:27;93814.56;;;11.17;47.72
76086;BME280;64791;0.000;0.000;2023-11-19T13:15:53;93811.59;;;11.15;48.04
76086;BME280;64791;0.000;0.000;2023-11-19T13:18:19;93806.09;;;11.23;48.68
76086;BME280;64791;0.000;0.000;2023-11-19T13:20:44;93812.91;;;11.29;48.77
76086;BME280;64791;0.000;0.000;2023-11-19T13:23:10;93808.09;;;11.38;49.05
76086;BME280;64791;0.000;0.000;2023-11-19T13:25:36;93801.44;;;11.48;49.12
76086;BME280;64791;0.000;0.000;2023-11-19T13:28:01;93788.16;;;11.54;49.13
76086;BME280;64791;0.000;0.000;2023-11-19T13:30:27;93781.75;;;11.52;48.91
76086;BME280;64791;0.000;0.000;2023-11-19T13:32:54;93779.00;;;11.44;48.96
76086;BME280;64791;0.000;0.000;2023-11-19T13:35:21;93783.06;;;11.36;49.08
76086;BME280;64791;0.000;0.000;2023-11-19T13:37:50;93784.75;;;11.23;49.79
76086;BME280;64791;0.000;0.000;2023-11-19T13:40:17;93788.06;;;11.14;49.76
76086;BME280;64791;0.000;0.000;2023-11-19T13:42:44;93791.75;;;11.17;49.88
76086;BME280;64791;0.000;0.000;2023-11-19T13:45:10;93790.25;;;11.39;49.88
76086;BME280;64791;0.000;0.000;2023-11-19T13:47:42;93786.88;;;11.48;49.37
76086;BME280;64791;0.000;0.000;2023-11-19T13:50:12;93784.69;;;11.54;49.33
76086;BME280;64791;0.000;0.000;2023-11-19T13:52:38;93790.75;;;11.52;49.57
76086;BME280;64791;0.000;0.000;2023-11-19T13:55:07;93794.06;;;11.51;49.42
76086;BME280;64791;0.000;0.000;2023-11-19T13:57:34;93797.25;;;11.32;49.86
76086;BME280;64791;0.000;0.000;2023-11-19T14:00:00;93800.22;;;11.11;50.40
76086;BME280;64791;0.000;0.000;2023-11-19T14:02:35;93798.94;;;10.90;50.57
76086;BME280;64791;0.000;0.000;2023-11-19T14:05:01;93815.09;;;10.71;51.23
76086;BME280;64791;0.000;0.000;2023-11-19T14:07:27;93821.34;;;10.64;51.20
76086;BME280;64791;0.000;0.000;2023-11-19T14:09:53;93820.94;;;10.52;51.46
76086;BME280;64791;0.000;0.000;2023-11-19T14:12:19;93818.91;;;10.37;51.56
76086;BME280;64791;0.000;0.000;2023-11-19T14:14:45;93831.53;;;10.18;52.30
76086;BME280;64791;0.000;0.000;2023-11-19T14:17:11;93836.41;;;9.97;52.86
76086;BME280;64791;0.000;0.000;2023-11-19T14:19:38;93844.06;;;9.83;52.92
76086;BME280;64791;0.000;0.000;2023-11-19T14:22:05;93835.78;;;9.75;53.14
76086;BME280;64791;0.000;0.000;2023-11-19T14:24:31;93840.19;;;9.78;52.84
76086;BME280;64791;0.000;0.000;2023-11-19T14:26:57;93847.69;;;9.78;52.28
76086;BME280;64791;0.000;0.000;2023-11-19T14:29:26;93858.50;;;9.68;52.20
76086;BME280;64791;0.000;0.000;2023-11-19T14:31:53;93850.00;;;9.59;52.64
76086;BME280;64791;0.000;0.000;2023-11-19T14:34:20;93866.84;;;9.48;52.12
76086;BME280;64791;0.000;0.000;2023-11-19T14:36:46;93852.44;;;9.34;52.31
76086;BME280;64791;0.000;0.000;2023-11-19T14:39:12;93844.28;;;9.21;52.42
76086;BME280;64791;0.000;0.000;2023-11-19T14:41:38;93844.28;;;9.00;52.80
76086;BME280;64791;0.000;0.000;2023-11-19T14:44:05;93840.47;;;8.83;53.37
76086;BME280;64791;0.000;0.000;2023-11-19T14:46:31;93838.66;;;8.65;53.48
76086;BME280;64791;0.000;0.000;2023-11-19T14:48:57;93836.72;;;8.52;53.29
76086;BME280;64791;0.000;0.000;2023-11-19T14:51:24;93829.25;;;8.40;53.55
76086;BME280;64791;0.000;0.000;2023-11-19T14:53:50;93835.25;;;8.17;53.75
76086;BME280;64791;0.000;0.000;2023-11-19T14:56:15;93845.47;;;7.96;54.37
76086;BME280;64791;0.000;0.000;2023-11-19T14:58:41;93854.81;;;7.80;54.11
76086;BME280;64791;0.000;0.000;2023-11-19T15:01:11;93846.38;;;7.65;54.09
76086;BME280;64791;0.000;0.000;2023-11-19T15:03:36;93845.31;;;7.55;54.07
76086;BME280;64791;0.000;0.000;2023-11-19T15:06:02;93845.22;;;7.47;54.21
76086;BME280;64791;0.000;0.000;2023-11-19T15:08:27;93844.28;;;7.32;54.11
76086;BME280;64791;0.000;0.000;2023-11-19T15:10:53;93840.25;;;7.20;54.28
76086;BME280;64791;0.000;0.000;2023-11-19T15:13:19;93836.00;;;7.06;54.53
76086;BME280;64791;0.000;0.000;2023-11-19T15:15:45;93854.84;;;6.83;55.33
76086;BME280;64791;0.000;0.000;2023-11-19T15:18:11;93862.47;;;6.27;56.33
76086;BME280;64791;0.000;0.000;2023-11-19T15:20:37;93860.06;;;5.86;57.56
76086;BME280;64791;0.000;0.000;2023-11-19T15:23:02;93855.38;;;5.62;57.92
76086;BME280;64791;0.000;0.000;2023-11-19T15:25:29;93859.09;;;5.46;58.67
76086;BME280;64791;0.000;0.000;2023-11-19T15:27:54;93863.72;;;6.44;58.00
76086;BME280;64791;0.000;0.000;2023-11-19T15:30:20;93868.75;;;7.82;54.12
76086;BME280;64791;0.000;0.000;2023-11-19T15:32:46;93872.31;;;7.77;52.76
76086;BME280;64791;0.000;0.000;2023-11-19T15:35:12;93872.84;;;7.23;53.76
76086;BME280;64791;0.000;0.000;2023-11-19T15:37:38;93863.13;;;6.64;55.01
76086;BME280;64791;0.000;0.000;2023-11-19T15:40:09;93851.09;;;6.23;55.97
76086;BME280;64791;0.000;0.000;2023-11-19T15:42:35;93840.31;;;5.93;56.34
76086;BME280;64791;0.000;0.000;2023-11-19T15:45:01;93841.72;;;5.62;57.07
76086;BME280;64791;0.000;0.000;2023-11-19T15:47:30;93839.84;;;5.52;57.86
76086;BME280;64791;0.000;0.000;2023-11-19T15:49:56;93837.25;;;6.79;55.76
76086;BME280;64791;0.000;0.000;2023-11-19T15:52:22;93836.81;;;8.26;52.07
76086;BME280;64791;0.000;0.000;2023-11-19T15:54:48;93841.25;;;7.95;51.44
76086;BME280;64791;0.000;0.000;2023-11-19T15:57:14;93837.84;;;7.42;52.21
76086;BME280;64791;0.000;0.000;2023-11-19T15:59:42;93845.16;;;6.82;53.54
76086;BME280;64791;0.000;0.000;2023-11-19T16:02:08;93837.63;;;6.25;55.18
76086;BME280;64791;0.000;0.000;2023-11-19T16:04:34;93834.09;;;5.92;55.74
76086;BME280;64791;0.000;0.000;2023-11-19T16:07:00;93833.16;;;5.53;56.78
76086;BME280;64791;0.000;0.000;2023-11-19T16:09:26;93830.09;;;5.56;57.75
76086;BME280;64791;0.000;0.000;2023-11-19T16:11:53;93837.78;;;6.77;55.58
76086;BME280;64791;0.000;0.000;2023-11-19T16:14:20;93834.84;;;8.13;52.01
76086;BME280;64791;0.000;0.000;2023-11-19T16:16:46;93833.31;;;7.92;50.93
76086;BME280;64791;0.000;0.000;2023-11-19T16:19:12;93846.06;;;7.42;52.08
76086;BME280;64791;0.000;0.000;2023-11-19T16:21:38;93852.66;;;6.82;53.71
76086;BME280;64791;0.000;0.000;2023-11-19T16:24:04;93850.56;;;6.24;54.46
76086;BME280;64791;0.000;0.000;2023-11-19T16:26:30;93857.41;;;5.80;55.65
76086;BME280;64791;0.000;0.000;2023-11-19T16:29:00;93846.66;;;5.45;56.79
76086;BME280;64791;0.000;0.000;2023-11-19T16:31:26;93841.28;;;5.58;56.75
76086;BME280;64791;0.000;0.000;2023-11-19T16:33:52;93840.16;;;7.25;53.74
76086;BME280;64791;0.000;0.000;2023-11-19T16:36:18;93828.53;;;8.39;50.63
76086;BME280;64791;0.000;0.000;2023-11-19T16:38:44;93821.06;;;8.06;51.04
76086;BME280;64791;0.000;0.000;2023-11-19T16:41:13;93808.94;;;7.55;51.76
76086;BME280;64791;0.000;0.000;2023-11-19T16:43:41;93809.97;;;7.12;53.00
76086;BME280;64791;0.000;0.000;2023-11-19T16:46:07;93802.78;;;6.83;53.18
76086;BME280;64791;0.000;0.000;2023-11-19T16:48:33;93809.88;;;6.47;54.15
76086;BME280;64791;0.000;0.000;2023-11-19T16:50:59;93816.84;;;6.16;54.82
76086;BME280;64791;0.000;0.000;2023-11-19T16:53:25;93829.66;;;5.89;55.45
76086;BME280;64791;0.000;0.000;2023-11-19T16:55:52;93833.16;;;5.71;55.99
76086;BME280;64791;0.000;0.000;2023-11-19T16:58:18;93848.06;;;5.52;56.56
76086;BME280;64791;0.000;0.000;2023-11-19T17:00:44;93840.59;;;5.71;56.79
76086;BME280;64791;0.000;0.000;2023-11-19T17:03:10;93846.59;;;7.41;54.95
76086;BME280;64791;0.000;0.000;2023-11-19T17:05:35;93855.09;;;8.23;52.20
76086;BME280;64791;0.000;0.000;2023-11-19T17:08:03;93861.94;;;7.96;52.53
76086;BME280;64791;0.000;0.000;2023-11-19T17:10:29;93868.44;;;7.46;53.03
76086;BME280;64791;0.000;0.000;2023-11-19T17:12:54;93877.78;;;7.12;53.62
76086;BME280;64791;0.000;0.000;2023-11-19T17:15:20;93858.75;;;6.74;54.74
76086;BME280;64791;0.000;0.000;2023-11-19T17:17:46;93858.44;;;6.46;55.34
76086;BME280;64791;0.000;0.000;2023-11-19T17:20:12;93857.44;;;6.31;55.54
76086;BME280;64791;0.000;0.000;2023-11-19T17:22:39;93842.81;;;6.10;55.98
76086;BME280;64791;0.000;0.000;2023-11-19T17:25:06;93842.09;;;5.90;56.57
76086;BME280;64791;0.000;0.000;2023-11-19T17:27:33;93842.31;;;5.74;57.02
76086;BME280;64791;0.000;0.000;2023-11-19T17:29:59;93837.22;;;5.65;57.35
76086;BME280;64791;0.000;0.000;2023-11-19T17:32:27;93852.22;;;5.58;57.56
76086;BME280;64791;0.000;0.000;2023-11-19T17:34:52;93849.09;;;5.49;57.80
76086;BME280;64791;0.000;0.000;2023-11-19T17:37:18;93848.19;;;5.41;57.90
76086;BME280;64791;0.000;0.000;2023-11-19T17:39:45;93844.66;;;6.20;57.72
76086;BME280;64791;0.000;0.000;2023-11-19T17:42:11;93840.63;;;7.76;54.81
76086;BME280;64791;0.000;0.000;2023-11-19T17:44:37;93839.97;;;8.30;53.10
76086;BME280;64791;0.000;0.000;2023-11-19T17:47:03;93841.25;;;7.95;53.41
76086;BME280;64791;0.000;0.000;2023-11-19T17:49:29;93834.88;;;7.54;53.68
76086;BME280;64791;0.000;0.000;2023-11-19T17:51:55;93832.75;;;7.07;54.90
76086;BME280;64791;0.000;0.000;2023-11-19T17:54:21;93841.56;;;6.74;55.73
76086;BME280;64791;0.000;0.000;2023-11-19T17:56:47;93844.53;;;6.44;56.41
76086;BME280;64791;0.000;0.000;2023-11-19T17:59:13;93847.38;;;6.20;56.71
76086;BME280;64791;0.000;0.000;2023-11-19T18:01:39;93846.88;;;6.03;57.40
76086;BME280;64791;0.000;0.000;2023-11-19T18:04:05;93836.63;;;5.90;57.33
76086;BME280;64791;0.000;0.000;2023-11-19T18:06:32;93836.31;;;5.75;57.75
76086;BME280;64791;0.000;0.000;2023-11-19T18:09:00;93833.06;;;5.58;58.21
76086;BME280;64791;0.000;0.000;2023-11-19T18:11:27;93836.47;;;5.46;58.66
76086;BME280;64791;0.000;0.000;2023-11-19T18:13:53;93837.09;;;5.33;59.00
76086;BME280;64791;0.000;0.000;2023-11-19T18:16:20;93840.41;;;5.26;59.29
76086;BME280;64791;0.000;0.000;2023-11-19T18:18:46;93854.50;;;5.54;59.66
76086;BME280;64791;0.000;0.000;2023-11-19T18:21:12;93847.06;;;6.87;56.73
76086;BME280;64791;0.000;0.000;2023-11-19T18:23:39;93832.25;;;8.08;54.17
76086;BME280;64791;0.000;0.000;2023-11-19T18:26:04;93838.59;;;8.03;53.16
76086;BME280;64791;0.000;0.000;2023-11-19T18:28:31;93837.28;;;7.57;53.77
76086;BME280;64791;0.000;0.000;2023-11-19T18:30:57;93849.50;;;7.04;55.19
76086;BME280;64791;0.000;0.000;2023-11-19T18:33:23;93853.22;;;6.61;56.50
76086;BME280;64791;0.000;0.000;2023-11-19T18:35:49;93859.56;;;6.38;56.67
76086;BME280;64791;0.000;0.000;2023-11-19T18:38:16;93858.50;;;6.09;57.60
76086;BME280;64791;0.000;0.000;2023-11-19T18:40:42;93864.94;;;5.93;57.59
76086;BME280;64791;0.000;0.000;2023-11-19T18:43:08;93875.59;;;5.78;58.15
76086;BME280;64791;0.000;0.000;2023-11-19T18:45:34;93861.53;;;5.68;58.36
76086;BME280;64791;0.000;0.000;2023-11-19T18:48:00;93868.41;;;5.56;58.79
76086;BME280;64791;0.000;0.000;2023-11-19T18:50:26;93861.59;;;5.44;58.89
76086;BME280;64791;0.000;0.000;2023-11-19T18:52:51;93870.41;;;5.32;59.52
76086;BME280;64791;0.000;0.000;2023-11-19T18:55:18;93865.16;;;5.95;59.63
76086;BME280;64791;0.000;0.000;2023-11-19T18:57:43;93858.63;;;7.38;56.04
76086;BME280;64791;0.000;0.000;2023-11-19T19:00:09;93861.50;;;8.05;53.68
76086;BME280;64791;0.000;0.000;2023-11-19T19:02:38;93854.38;;;7.76;54.68
76086;BME280;64791;0.000;0.000;2023-11-19T19:05:04;93851.25;;;7.33;55.28
76086;BME280;64791;0.000;0.000;2023-11-19T19:07:31;93854.66;;;6.94;56.00
76086;BME280;64791;0.000;0.000;2023-11-19T19:09:56;93872.19;;;6.59;57.07
76086;BME280;64791;0.000;0.000;2023-11-19T19:12:23;93871.88;;;6.31;57.34
76086;BME280;64791;0.000;0.000;2023-11-19T19:14:48;93872.72;;;6.08;58.31
76086;BME280;64791;0.000;0.000;2023-11-19T19:17:14;93876.19;;;5.89;58.67
76086;BME280;64791;0.000;0.000;2023-11-19T19:19:41;93877.88;;;5.74;59.01
76086;BME280;64791;0.000;0.000;2023-11-19T19:22:07;93878.03;;;5.63;59.13
76086;BME280;64791;0.000;0.000;2023-11-19T19:24:32;93872.16;;;5.53;59.45
76086;BME280;64791;0.000;0.000;2023-11-19T19:26:59;93865.03;;;5.45;59.45
76086;BME280;64791;0.000;0.000;2023-11-19T19:29:24;93866.38;;;5.38;59.91
76086;BME280;64791;0.000;0.000;2023-11-19T19:31:50;93864.72;;;5.30;60.11
76086;BME280;64791;0.000;0.000;2023-11-19T19:34:16;93867.75;;;5.26;59.95
76086;BME280;64791;0.000;0.000;2023-11-19T19:36:42;93873.03;;;5.18;60.12
76086;BME280;64791;0.000;0.000;2023-11-19T19:39:08;93867.34;;;5.16;60.11
76086;BME280;64791;0.000;0.000;2023-11-19T19:41:39;93869.53;;;5.85;60.09
76086;BME280;64791;0.000;0.000;2023-11-19T19:44:05;93857.25;;;6.73;57.88
76086;BME280;64791;0.000;0.000;2023-11-19T19:46:31;93861.44;;;7.06;57.03
76086;BME280;64791;0.000;0.000;2023-11-19T19:48:57;93856.38;;;7.10;56.66
76086;BME280;64791;0.000;0.000;2023-11-19T19:51:23;93855.63;;;7.10;56.46
76086;BME280;64791;0.000;0.000;2023-11-19T19:53:51;93854.78;;;7.02;56.32
76086;BME280;64791;0.000;0.000;2023-11-19T19:56:17;93855.38;;;6.82;56.79
76086;BME280;64791;0.000;0.000;2023-11-19T19:58:43;93854.56;;;6.55;57.27
76086;BME280;64791;0.000;0.000;2023-11-19T20:01:09;93845.94;;;6.32;57.67
76086;BME280;64791;0.000;0.000;2023-11-19T20:03:36;93850.72;;;6.13;58.57
76086;BME280;64791;0.000;0.000;2023-11-19T20:06:02;93844.03;;;5.95;58.99
76086;BME280;64791;0.000;0.000;2023-11-19T20:08:30;93841.94;;;5.83;59.20
76086;BME280;64791;0.000;0.000;2023-11-19T20:10:56;93844.31;;;5.73;59.26
76086;BME280;64791;0.000;0.000;2023-11-19T20:13:23;93837.22;;;5.65;59.49
76086;BME280;64791;0.000;0.000;2023-11-19T20:15:49;93839.78;;;5.57;59.83
76086;BME280;64791;0.000;0.000;2023-11-19T20:18:18;93838.88;;;5.49;59.97
76086;BME280;64791;0.000;0.000;2023-11-19T20:20:44;93825.28;;;5.44;60.33
76086;BME280;64791;0.000;0.000;2023-11-19T20:23:10;93822.63;;;5.38;60.42
76086;BME280;64791;0.000;0.000;2023-11-19T20:25:36;93825.19;;;5.31;60.52
76086;BME280;64791;0.000;0.000;2023-11-19T20:28:02;93810.56;;;5.28;60.43
76086;BME280;64791;0.000;0.000;2023-11-19T20:30:28;93803.16;;;5.23;60.40
76086;BME280;64791;0.000;0.000;2023-11-19T20:32:54;93809.81;;;5.28;61.57
76086;BME280;64791;0.000;0.000;2023-11-19T20:35:20;93788.78;;;6.42;59.08
76086;BME280;64791;0.000;0.000;2023-11-19T20:37:46;93779.44;;;7.68;55.76
76086;BME280;64791;0.000;0.000;2023-11-19T20:40:11;93787.47;;;8.00;54.93
76086;BME280;64791;0.000;0.000;2023-11-19T20:42:37;93786.72;;;7.66;54.72
76086;BME280;64791;0.000;0.000;2023-11-19T20:45:06;93796.56;;;7.09;56.03
76086;BME280;64791;0.000;0.000;2023-11-19T20:47:34;93805.56;;;6.51;57.42
76086;BME280;64791;0.000;0.000;2023-11-19T20:50:00;93806.25;;;6.07;58.61
76086;BME280;64791;0.000;0.000;2023-11-19T20:52:25;93805.03;;;5.71;59.46
76086;BME280;64791;0.000;0.000;2023-11-19T20:54:51;93797.88;;;5.49;59.98
76086;BME280;64791;0.000;0.000;2023-11-19T20:57:16;93796.75;;;5.39;60.66
76086;BME280;64791;0.000;0.000;2023-11-19T20:59:42;93784.13;;;5.73;60.15
76086;BME280;64791;0.000;0.000;2023-11-19T21:02:08;93784.34;;;6.07;59.47
76086;BME280;64791;0.000;0.000;2023-11-19T21:04:34;93797.72;;;6.29;59.22
76086;BME280;64791;0.000;0.000;2023-11-19T21:06:59;93781.44;;;6.50;58.78
76086;BME280;64791;0.000;0.000;2023-11-19T21:09:25;93794.50;;;6.57;57.93
76086;BME280;64791;0.000;0.000;2023-11-19T21:11:51;93790.50;;;6.45;57.49
76086;BME280;64791;0.000;0.000;2023-11-19T21:14:17;93785.19;;;6.02;58.49
76086;BME280;64791;0.000;0.000;2023-11-19T21:16:43;93785.81;;;5.58;59.87
76086;BME280;64791;0.000;0.000;2023-11-19T21:19:09;93796.31;;;5.35;60.04
76086;BME280;64791;0.000;0.000;2023-11-19T21:21:37;93802.38;;;6.47;58.19
76086;BME280;64791;0.000;0.000;2023-11-19T21:24:03;93796.88;;;7.44;55.61
76086;BME280;64791;0.000;0.000;2023-11-19T21:26:29;93807.22;;;7.65;53.72
76086;BME280;64791;0.000;0.000;2023-11-19T21:28:55;93816.72;;;6.98;54.95
76086;BME280;64791;0.000;0.000;2023-11-19T21:31:21;93814.19;;;6.42;56.42
76086;BME280;64791;0.000;0.000;2023-11-19T21:33:47;93808.72;;;5.92;57.79
76086;BME280;64791;0.000;0.000;2023-11-19T21:36:13;93805.31;;;5.49;58.77
76086;BME280;64791;0.000;0.000;2023-11-19T21:38:39;93797.03;;;6.10;57.81
76086;BME280;64791;0.000;0.000;2023-11-19T21:41:05;93776.00;;;7.15;54.56
76086;BME280;64791;0.000;0.000;2023-11-19T21:43:32;93771.88;;;8.15;53.01
76086;BME280;64791;0.000;0.000;2023-11-19T21:45:58;93773.50;;;7.77;52.34
76086;BME280;64791;0.000;0.000;2023-11-19T21:48:24;93771.97;;;7.16;53.81
76086;BME280;64791;0.000;0.000;2023-11-19T21:50:50;93773.13;;;6.55;54.87
76086;BME280;64791;0.000;0.000;2023-11-19T21:53:16;93771.19;;;6.06;55.84
76086;BME280;64791;0.000;0.000;2023-11-19T21:55:42;93775.84;;;5.60;57.05
76086;BME280;64791;0.000;0.000;2023-11-19T21:58:08;93773.34;;;5.94;56.98
76086;BME280;64791;0.000;0.000;2023-11-19T22:00:34;93764.91;;;7.08;54.74
76086;BME280;64791;0.000;0.000;2023-11-19T22:03:00;93748.16;;;8.05;51.44
76086;BME280;64791;0.000;0.000;2023-11-19T22:05:25;93754.53;;;7.66;51.71
76086;BME280;64791;0.000;0.000;2023-11-19T22:07:51;93759.13;;;7.11;52.73
76086;BME280;64791;0.000;0.000;2023-11-19T22:10:16;93753.41;;;6.44;54.35
76086;BME280;64791;0.000;0.000;2023-11-19T22:12:42;93755.09;;;5.83;56.15
76086;BME280;64791;0.000;0.000;2023-11-19T22:15:08;93756.56;;;5.53;56.35
76086;BME280;64791;0.000;0.000;2023-11-19T22:17:34;93758.03;;;6.36;55.59
76086;BME280;64791;0.000;0.000;2023-11-19T22:20:05;93750.66;;;7.48;52.27
76086;BME280;64791;0.000;0.000;2023-11-19T22:22:32;93749.09;;;8.28;50.11
76086;BME280;64791;0.000;0.000;2023-11-19T22:24:57;93760.75;;;7.67;51.41
76086;BME280;64791;0.000;0.000;2023-11-19T22:27:24;93745.53;;;6.93;52.70
76086;BME280;64791;0.000;0.000;2023-11-19T22:29:50;93754.44;;;6.28;54.31
76086;BME280;64791;0.000;0.000;2023-11-19T22:32:16;93753.50;;;5.75;55.97
76086;BME280;64791;0.000;0.000;2023-11-19T22:34:41;93745.66;;;5.84;56.35
76086;BME280;64791;0.000;0.000;2023-11-19T22:37:09;93729.59;;;7.04;53.99
76086;BME280;64791;0.000;0.000;2023-11-19T22:39:35;93726.84;;;7.77;51.47
76086;BME280;64791;0.000;0.000;2023-11-19T22:42:01;93728.81;;;7.56;52.04
76086;BME280;64791;0.000;0.000;2023-11-19T22:44:27;93735.72;;;6.97;52.68
76086;BME280;64791;0.000;0.000;2023-11-19T22:46:53;93754.31;;;6.33;54.71
76086;BME280;64791;0.000;0.000;2023-11-19T22:49:19;93761.44;;;5.91;55.35
76086;BME280;64791;0.000;0.000;2023-11-19T22:51:45;93766.09;;;5.46;56.16
76086;BME280;64791;0.000;0.000;2023-11-19T22:54:12;93760.03;;;6.04;56.46
76086;BME280;64791;0.000;0.000;2023-11-19T22:56:38;93758.41;;;7.37;53.28
76086;BME280;64791;0.000;0.000;2023-11-19T22:59:04;93745.16;;;8.37;50.71
76086;BME280;64791;0.000;0.000;2023-11-19T23:01:30;93754.19;;;8.03;50.76
76086;BME280;64791;0.000;0.000;2023-11-19T23:03:58;93767.03;;;7.41;51.74
76086;BME280;64791;0.000;0.000;2023-11-19T23:06:24;93777.28;;;6.75;53.67
76086;BME280;64791;0.000;0.000;2023-11-19T23:08:50;93784.16;;;6.05;55.26
76086;BME280;64791;0.000;0.000;2023-11-19T23:11:16;93781.69;;;5.70;56.53
76086;BME280;64791;0.000;0.000;2023-11-19T23:13:44;93774.81;;;6.58;55.23
76086;BME280;64791;0.000;0.000;2023-11-19T23:16:10;93769.00;;;7.67;53.16
76086;BME280;64791;0.000;0.000;2023-11-19T23:18:38;93770.50;;;7.88;52.06
76086;BME280;64791;0.000;0.000;2023-11-19T23:21:04;93773.69;;;7.45;52.94
76086;BME280;64791;0.000;0.000;2023-11-19T23:23:30;93777.38;;;6.96;53.94
76086;BME280;64791;0.000;0.000;2023-11-19T23:25:55;93769.13;;;6.56;55.06
76086;BME280;64791;0.000;0.000;2023-11-19T23:28:23;93777.59;;;6.27;55.55
76086;BME280;64791;0.000;0.000;2023-11-19T23:30:49;93774.16;;;6.08;55.82
76086;BME280;64791;0.000;0.000;2023-11-19T23:33:14;93774.69;;;5.87;56.36
76086;BME280;64791;0.000;0.000;2023-11-19T23:35:41;93759.50;;;5.73;57.20
76086;BME280;64791;0.000;0.000;2023-11-19T23:38:06;93750.91;;;5.64;57.20
76086;BME280;64791;0.000;0.000;2023-11-19T23:40:33;93744.56;;;5.56;57.45
76086;BME280;64791;0.000;0.000;2023-11-19T23:42:59;93755.06;;;5.52;57.81
76086;BME280;64791;0.000;0.000;2023-11-19T23:45:25;93753.44;;;5.43;57.58